sensor_id;sensor_type;location;lat;lon;timestamp;P1;durP1;ratioP1;P2;durP2;ratioP2
7239;SDS011;3661;53.288;10.458;2022-08-19T00:01:49;18.73;;;17.83;;
7239;SDS011;3661;53.288;10.458;2022-08-19T00:04:24;19.67;;;18.60;;
7239;SDS011;3661;53.288;10.458;2022-08-19T00:06:58;19.00;;;17.80;;
7239;SDS011;3661;53.288;10.458;2022-08-19T00:09:30;17.92;;;16.77;;
7239;SDS011;3661;53.288;10.458;2022-08-19T00:12:03;18.60;;;17.48;;
7239;SDS011;3661;53.288;10.458;2022-08-19T00:14:38;19.25;;;18.05;;
7239;SDS011;3661;53.288;10.458;2022-08-19T00:17:11;18.83;;;17.95;;
7239;SDS011;3661;53.288;10.458;2022-08-19T00:19:43;18.30;;;17.17;;
7239;SDS011;3661;53.288;10.458;2022-08-19T00:22:15;19.17;;;18.17;;
7239;SDS011;3661;53.288;10.458;2022-08-19T00:24:48;19.27;;;18.20;;
7239;SDS011;3661;53.288;10.458;2022-08-19T00:27:20;17.83;;;16.83;;
7239;SDS011;3661;53.288;10.458;2022-08-19T00:29:54;19.67;;;18.48;;
7239;SDS011;3661;53.288;10.458;2022-08-19T00:32:26;18.73;;;17.73;;
7239;SDS011;3661;53.288;10.458;2022-08-19T00:34:58;17.90;;;16.97;;
7239;SDS011;3661;53.288;10.458;2022-08-19T00:37:31;17.65;;;16.77;;
7239;SDS011;3661;53.288;10.458;2022-08-19T00:40:05;18.70;;;17.43;;
7239;SDS011;3661;53.288;10.458;2022-08-19T00:42:38;17.15;;;16.17;;
7239;SDS011;3661;53.288;10.458;2022-08-19T00:45:14;15.03;;;14.30;;
7239;SDS011;3661;53.288;10.458;2022-08-19T00:47:50;16.67;;;15.68;;
7239;SDS011;3661;53.288;10.458;2022-08-19T00:50:22;17.15;;;16.17;;
7239;SDS011;3661;53.288;10.458;2022-08-19T00:52:55;17.23;;;16.23;;
7239;SDS011;3661;53.288;10.458;2022-08-19T00:55:30;16.58;;;15.75;;
7239;SDS011;3661;53.288;10.458;2022-08-19T00:58:04;15.00;;;14.23;;
7239;SDS011;3661;53.288;10.458;2022-08-19T01:00:40;14.57;;;13.77;;
7239;SDS011;3661;53.288;10.458;2022-08-19T01:03:14;13.80;;;12.85;;
7239;SDS011;3661;53.288;10.458;2022-08-19T01:05:48;14.02;;;13.23;;
7239;SDS011;3661;53.288;10.458;2022-08-19T01:08:21;15.15;;;14.32;;
7239;SDS011;3661;53.288;10.458;2022-08-19T01:10:55;14.95;;;14.15;;
7239;SDS011;3661;53.288;10.458;2022-08-19T01:13:30;14.65;;;13.80;;
7239;SDS011;3661;53.288;10.458;2022-08-19T01:16:07;14.38;;;13.73;;
7239;SDS011;3661;53.288;10.458;2022-08-19T01:18:41;15.02;;;14.32;;
7239;SDS011;3661;53.288;10.458;2022-08-19T01:21:15;16.05;;;15.15;;
7239;SDS011;3661;53.288;10.458;2022-08-19T01:23:54;16.42;;;15.43;;
7239;SDS011;3661;53.288;10.458;2022-08-19T01:26:26;13.30;;;12.70;;
7239;SDS011;3661;53.288;10.458;2022-08-19T01:28:59;14.85;;;13.93;;
7239;SDS011;3661;53.288;10.458;2022-08-19T01:31:31;16.30;;;15.35;;
7239;SDS011;3661;53.288;10.458;2022-08-19T01:34:04;14.45;;;13.63;;
7239;SDS011;3661;53.288;10.458;2022-08-19T01:36:38;13.15;;;12.55;;
7239;SDS011;3661;53.288;10.458;2022-08-19T01:39:17;15.30;;;14.50;;
7239;SDS011;3661;53.288;10.458;2022-08-19T01:41:51;14.35;;;13.55;;
7239;SDS011;3661;53.288;10.458;2022-08-19T01:44:25;14.35;;;13.57;;
7239;SDS011;3661;53.288;10.458;2022-08-19T01:46:59;14.02;;;13.32;;
7239;SDS011;3661;53.288;10.458;2022-08-19T01:49:32;15.50;;;14.70;;
7239;SDS011;3661;53.288;10.458;2022-08-19T01:52:04;15.70;;;15.00;;
7239;SDS011;3661;53.288;10.458;2022-08-19T01:54:38;16.67;;;15.88;;
7239;SDS011;3661;53.288;10.458;2022-08-19T01:57:12;15.40;;;14.60;;
7239;SDS011;3661;53.288;10.458;2022-08-19T01:59:44;15.70;;;15.00;;
7239;SDS011;3661;53.288;10.458;2022-08-19T02:02:17;18.25;;;17.45;;
7239;SDS011;3661;53.288;10.458;2022-08-19T02:04:49;15.88;;;15.07;;
7239;SDS011;3661;53.288;10.458;2022-08-19T02:07:21;15.90;;;15.20;;
7239;SDS011;3661;53.288;10.458;2022-08-19T02:09:55;16.90;;;16.10;;
7239;SDS011;3661;53.288;10.458;2022-08-19T02:12:27;17.10;;;16.33;;
7239;SDS011;3661;53.288;10.458;2022-08-19T02:14:59;18.35;;;17.45;;
7239;SDS011;3661;53.288;10.458;2022-08-19T02:17:32;20.30;;;19.20;;
7239;SDS011;3661;53.288;10.458;2022-08-19T02:20:05;18.35;;;17.55;;
7239;SDS011;3661;53.288;10.458;2022-08-19T02:22:39;16.55;;;15.73;;
7239;SDS011;3661;53.288;10.458;2022-08-19T02:25:13;16.65;;;15.85;;
7239;SDS011;3661;53.288;10.458;2022-08-19T02:27:46;18.90;;;18.02;;
7239;SDS011;3661;53.288;10.458;2022-08-19T02:30:18;17.65;;;16.67;;
7239;SDS011;3661;53.288;10.458;2022-08-19T02:32:51;16.67;;;15.88;;
7239;SDS011;3661;53.288;10.458;2022-08-19T02:35:23;16.00;;;15.25;;
7239;SDS011;3661;53.288;10.458;2022-08-19T02:37:55;18.35;;;17.35;;
7239;SDS011;3661;53.288;10.458;2022-08-19T02:40:49;17.38;;;16.58;;
7239;SDS011;3661;53.288;10.458;2022-08-19T02:43:22;16.73;;;15.93;;
7239;SDS011;3661;53.288;10.458;2022-08-19T02:45:55;18.67;;;17.77;;
7239;SDS011;3661;53.288;10.458;2022-08-19T02:48:28;17.33;;;16.63;;
7239;SDS011;3661;53.288;10.458;2022-08-19T02:51:00;16.85;;;15.90;;
7239;SDS011;3661;53.288;10.458;2022-08-19T02:53:32;19.08;;;18.17;;
7239;SDS011;3661;53.288;10.458;2022-08-19T02:56:07;17.70;;;16.70;;
7239;SDS011;3661;53.288;10.458;2022-08-19T02:58:39;16.42;;;15.55;;
7239;SDS011;3661;53.288;10.458;2022-08-19T03:01:19;17.95;;;16.92;;
7239;SDS011;3661;53.288;10.458;2022-08-19T03:03:52;16.08;;;15.38;;
7239;SDS011;3661;53.288;10.458;2022-08-19T03:06:25;16.45;;;15.52;;
7239;SDS011;3661;53.288;10.458;2022-08-19T03:08:58;16.42;;;15.70;;
7239;SDS011;3661;53.288;10.458;2022-08-19T03:11:32;15.90;;;15.00;;
7239;SDS011;3661;53.288;10.458;2022-08-19T03:14:06;17.02;;;16.23;;
7239;SDS011;3661;53.288;10.458;2022-08-19T03:16:40;14.67;;;13.97;;
7239;SDS011;3661;53.288;10.458;2022-08-19T03:19:15;17.65;;;16.83;;
7239;SDS011;3661;53.288;10.458;2022-08-19T03:21:50;17.73;;;16.67;;
7239;SDS011;3661;53.288;10.458;2022-08-19T03:24:22;19.30;;;18.30;;
7239;SDS011;3661;53.288;10.458;2022-08-19T03:26:56;18.77;;;17.83;;
7239;SDS011;3661;53.288;10.458;2022-08-19T03:29:29;17.35;;;16.30;;
7239;SDS011;3661;53.288;10.458;2022-08-19T03:32:04;19.02;;;17.95;;
7239;SDS011;3661;53.288;10.458;2022-08-19T03:34:37;19.77;;;18.58;;
7239;SDS011;3661;53.288;10.458;2022-08-19T03:37:10;18.80;;;17.70;;
7239;SDS011;3661;53.288;10.458;2022-08-19T03:39:43;20.48;;;19.27;;
7239;SDS011;3661;53.288;10.458;2022-08-19T03:42:17;19.70;;;18.70;;
7239;SDS011;3661;53.288;10.458;2022-08-19T03:44:49;21.97;;;20.87;;
7239;SDS011;3661;53.288;10.458;2022-08-19T03:47:21;20.58;;;19.38;;
7239;SDS011;3661;53.288;10.458;2022-08-19T03:49:54;21.58;;;20.23;;
7239;SDS011;3661;53.288;10.458;2022-08-19T03:52:26;19.55;;;18.35;;
7239;SDS011;3661;53.288;10.458;2022-08-19T03:54:58;20.98;;;19.88;;
7239;SDS011;3661;53.288;10.458;2022-08-19T03:57:32;19.98;;;18.65;;
7239;SDS011;3661;53.288;10.458;2022-08-19T04:00:05;23.07;;;21.77;;
7239;SDS011;3661;53.288;10.458;2022-08-19T04:02:37;20.30;;;19.10;;
7239;SDS011;3661;53.288;10.458;2022-08-19T04:05:10;18.47;;;17.37;;
7239;SDS011;3661;53.288;10.458;2022-08-19T04:07:44;21.48;;;20.00;;
7239;SDS011;3661;53.288;10.458;2022-08-19T04:10:16;19.25;;;18.05;;
7239;SDS011;3661;53.288;10.458;2022-08-19T04:12:50;19.05;;;17.95;;
7239;SDS011;3661;53.288;10.458;2022-08-19T04:15:22;19.95;;;18.95;;
7239;SDS011;3661;53.288;10.458;2022-08-19T04:17:54;19.75;;;18.65;;
7239;SDS011;3661;53.288;10.458;2022-08-19T04:20:26;21.98;;;20.73;;
7239;SDS011;3661;53.288;10.458;2022-08-19T04:22:58;19.73;;;18.58;;
7239;SDS011;3661;53.288;10.458;2022-08-19T04:25:34;22.27;;;21.08;;
7239;SDS011;3661;53.288;10.458;2022-08-19T04:28:09;22.53;;;21.33;;
7239;SDS011;3661;53.288;10.458;2022-08-19T04:30:44;21.27;;;20.00;;
7239;SDS011;3661;53.288;10.458;2022-08-19T04:33:19;20.40;;;19.17;;
7239;SDS011;3661;53.288;10.458;2022-08-19T04:35:53;20.75;;;19.75;;
7239;SDS011;3661;53.288;10.458;2022-08-19T04:38:28;20.80;;;19.45;;
7239;SDS011;3661;53.288;10.458;2022-08-19T04:41:01;20.77;;;19.60;;
7239;SDS011;3661;53.288;10.458;2022-08-19T04:43:53;20.95;;;19.85;;
7239;SDS011;3661;53.288;10.458;2022-08-19T04:46:26;21.85;;;20.52;;
7239;SDS011;3661;53.288;10.458;2022-08-19T04:48:59;21.80;;;20.70;;
7239;SDS011;3661;53.288;10.458;2022-08-19T04:51:33;24.03;;;22.63;;
7239;SDS011;3661;53.288;10.458;2022-08-19T04:54:06;23.92;;;22.70;;
7239;SDS011;3661;53.288;10.458;2022-08-19T04:56:39;24.10;;;22.77;;
7239;SDS011;3661;53.288;10.458;2022-08-19T04:59:13;21.02;;;19.73;;
7239;SDS011;3661;53.288;10.458;2022-08-19T05:01:46;25.42;;;24.20;;
7239;SDS011;3661;53.288;10.458;2022-08-19T05:04:20;21.92;;;20.77;;
7239;SDS011;3661;53.288;10.458;2022-08-19T05:06:52;21.00;;;19.67;;
7239;SDS011;3661;53.288;10.458;2022-08-19T05:09:24;23.08;;;21.85;;
7239;SDS011;3661;53.288;10.458;2022-08-19T05:11:56;20.92;;;19.75;;
7239;SDS011;3661;53.288;10.458;2022-08-19T05:14:31;22.25;;;20.95;;
7239;SDS011;3661;53.288;10.458;2022-08-19T05:17:04;22.93;;;21.73;;
7239;SDS011;3661;53.288;10.458;2022-08-19T05:19:36;20.07;;;18.87;;
7239;SDS011;3661;53.288;10.458;2022-08-19T05:22:25;20.45;;;19.35;;
7239;SDS011;3661;53.288;10.458;2022-08-19T05:25:05;25.15;;;23.85;;
7239;SDS011;3661;53.288;10.458;2022-08-19T05:27:39;22.83;;;21.30;;
7239;SDS011;3661;53.288;10.458;2022-08-19T05:30:14;22.52;;;21.33;;
7239;SDS011;3661;53.288;10.458;2022-08-19T05:32:47;23.60;;;22.30;;
7239;SDS011;3661;53.288;10.458;2022-08-19T05:35:19;22.95;;;21.75;;
7239;SDS011;3661;53.288;10.458;2022-08-19T05:37:53;22.17;;;20.75;;
7239;SDS011;3661;53.288;10.458;2022-08-19T05:40:25;25.05;;;23.55;;
7239;SDS011;3661;53.288;10.458;2022-08-19T05:43:13;24.67;;;23.17;;
7239;SDS011;3661;53.288;10.458;2022-08-19T05:45:48;24.25;;;22.75;;
7239;SDS011;3661;53.288;10.458;2022-08-19T05:48:21;23.88;;;22.38;;
7239;SDS011;3661;53.288;10.458;2022-08-19T05:50:53;27.05;;;25.35;;
7239;SDS011;3661;53.288;10.458;2022-08-19T05:53:25;24.95;;;23.35;;
7239;SDS011;3661;53.288;10.458;2022-08-19T05:56:03;28.48;;;26.88;;
7239;SDS011;3661;53.288;10.458;2022-08-19T05:58:36;26.80;;;25.30;;
7239;SDS011;3661;53.288;10.458;2022-08-19T06:01:10;29.73;;;27.90;;
7239;SDS011;3661;53.288;10.458;2022-08-19T06:03:44;31.30;;;29.25;;
7239;SDS011;3661;53.288;10.458;2022-08-19T06:06:18;32.33;;;30.35;;
7239;SDS011;3661;53.288;10.458;2022-08-19T06:08:50;28.88;;;26.98;;
7239;SDS011;3661;53.288;10.458;2022-08-19T06:11:23;32.88;;;31.02;;
7239;SDS011;3661;53.288;10.458;2022-08-19T06:14:04;28.73;;;26.92;;
7239;SDS011;3661;53.288;10.458;2022-08-19T06:16:40;30.73;;;28.50;;
7239;SDS011;3661;53.288;10.458;2022-08-19T06:19:14;32.78;;;30.73;;
7239;SDS011;3661;53.288;10.458;2022-08-19T06:21:48;36.38;;;33.97;;
7239;SDS011;3661;53.288;10.458;2022-08-19T06:24:21;35.33;;;33.03;;
7239;SDS011;3661;53.288;10.458;2022-08-19T06:26:55;36.93;;;34.33;;
7239;SDS011;3661;53.288;10.458;2022-08-19T06:29:29;39.78;;;37.58;;
7239;SDS011;3661;53.288;10.458;2022-08-19T06:32:03;36.33;;;34.22;;
7239;SDS011;3661;53.288;10.458;2022-08-19T06:34:36;35.05;;;32.95;;
7239;SDS011;3661;53.288;10.458;2022-08-19T06:37:08;36.13;;;33.72;;
7239;SDS011;3661;53.288;10.458;2022-08-19T06:39:41;40.20;;;37.72;;
7239;SDS011;3661;53.288;10.458;2022-08-19T06:42:14;40.67;;;38.17;;
7239;SDS011;3661;53.288;10.458;2022-08-19T06:44:48;42.27;;;39.47;;
7239;SDS011;3661;53.288;10.458;2022-08-19T06:47:22;37.10;;;34.85;;
7239;SDS011;3661;53.288;10.458;2022-08-19T06:49:54;46.38;;;43.05;;
7239;SDS011;3661;53.288;10.458;2022-08-19T06:52:34;40.88;;;37.88;;
7239;SDS011;3661;53.288;10.458;2022-08-19T06:55:07;41.10;;;38.00;;
7239;SDS011;3661;53.288;10.458;2022-08-19T06:57:39;39.97;;;36.97;;
7239;SDS011;3661;53.288;10.458;2022-08-19T07:00:12;39.60;;;36.75;;
7239;SDS011;3661;53.288;10.458;2022-08-19T07:02:46;42.75;;;39.78;;
7239;SDS011;3661;53.288;10.458;2022-08-19T07:05:19;47.40;;;44.33;;
7239;SDS011;3661;53.288;10.458;2022-08-19T07:07:51;49.28;;;46.08;;
7239;SDS011;3661;53.288;10.458;2022-08-19T07:10:23;46.05;;;43.05;;
7239;SDS011;3661;53.288;10.458;2022-08-19T07:12:55;47.47;;;44.42;;
7239;SDS011;3661;53.288;10.458;2022-08-19T07:15:29;47.15;;;43.88;;
7239;SDS011;3661;53.288;10.458;2022-08-19T07:21:29;41.67;;;38.93;;
7239;SDS011;3661;53.288;10.458;2022-08-19T07:24:01;41.05;;;38.28;;
7239;SDS011;3661;53.288;10.458;2022-08-19T07:26:37;45.28;;;42.08;;
7239;SDS011;3661;53.288;10.458;2022-08-19T07:29:11;45.65;;;42.60;;
7239;SDS011;3661;53.288;10.458;2022-08-19T07:31:45;45.30;;;42.22;;
7239;SDS011;3661;53.288;10.458;2022-08-19T07:34:17;50.47;;;47.15;;
7239;SDS011;3661;53.288;10.458;2022-08-19T07:36:52;43.78;;;40.53;;
7239;SDS011;3661;53.288;10.458;2022-08-19T07:39:26;46.50;;;43.25;;
7239;SDS011;3661;53.288;10.458;2022-08-19T07:42:02;44.33;;;41.20;;
7239;SDS011;3661;53.288;10.458;2022-08-19T07:44:37;46.03;;;42.87;;
7239;SDS011;3661;53.288;10.458;2022-08-19T07:47:10;45.08;;;41.70;;
7239;SDS011;3661;53.288;10.458;2022-08-19T07:49:45;45.00;;;42.00;;
7239;SDS011;3661;53.288;10.458;2022-08-19T07:52:19;44.85;;;41.47;;
7239;SDS011;3661;53.288;10.458;2022-08-19T07:54:51;45.63;;;42.37;;
7239;SDS011;3661;53.288;10.458;2022-08-19T07:57:24;46.60;;;43.30;;
7239;SDS011;3661;53.288;10.458;2022-08-19T07:59:56;45.57;;;42.17;;
7239;SDS011;3661;53.288;10.458;2022-08-19T08:02:28;51.33;;;47.90;;
7239;SDS011;3661;53.288;10.458;2022-08-19T08:05:01;55.35;;;51.58;;
7239;SDS011;3661;53.288;10.458;2022-08-19T08:07:52;52.72;;;48.70;;
7239;SDS011;3661;53.288;10.458;2022-08-19T08:10:41;53.73;;;50.17;;
7239;SDS011;3661;53.288;10.458;2022-08-19T08:13:15;48.78;;;45.28;;
7239;SDS011;3661;53.288;10.458;2022-08-19T08:15:47;51.20;;;47.38;;
7239;SDS011;3661;53.288;10.458;2022-08-19T08:18:20;51.58;;;47.47;;
7239;SDS011;3661;53.288;10.458;2022-08-19T08:20:52;53.78;;;49.50;;
7239;SDS011;3661;53.288;10.458;2022-08-19T08:23:25;54.75;;;51.13;;
7239;SDS011;3661;53.288;10.458;2022-08-19T08:26:00;53.37;;;49.27;;
7239;SDS011;3661;53.288;10.458;2022-08-19T08:28:34;54.15;;;49.95;;
7239;SDS011;3661;53.288;10.458;2022-08-19T08:31:07;55.03;;;51.23;;
7239;SDS011;3661;53.288;10.458;2022-08-19T08:33:40;54.58;;;50.83;;
7239;SDS011;3661;53.288;10.458;2022-08-19T08:36:13;53.13;;;49.25;;
7239;SDS011;3661;53.288;10.458;2022-08-19T08:38:47;51.60;;;47.90;;
7239;SDS011;3661;53.288;10.458;2022-08-19T08:41:22;53.72;;;49.85;;
7239;SDS011;3661;53.288;10.458;2022-08-19T08:43:59;55.20;;;51.22;;
7239;SDS011;3661;53.288;10.458;2022-08-19T08:46:35;56.05;;;51.50;;
7239;SDS011;3661;53.288;10.458;2022-08-19T08:49:16;53.50;;;49.53;;
7239;SDS011;3661;53.288;10.458;2022-08-19T08:51:57;56.15;;;51.75;;
7239;SDS011;3661;53.288;10.458;2022-08-19T08:54:36;51.50;;;47.75;;
7239;SDS011;3661;53.288;10.458;2022-08-19T08:57:12;52.63;;;48.55;;
7239;SDS011;3661;53.288;10.458;2022-08-19T08:59:48;52.50;;;48.35;;
7239;SDS011;3661;53.288;10.458;2022-08-19T09:02:25;50.75;;;46.78;;
7239;SDS011;3661;53.288;10.458;2022-08-19T09:04:57;49.92;;;46.25;;
7239;SDS011;3661;53.288;10.458;2022-08-19T09:07:34;50.92;;;47.42;;
7239;SDS011;3661;53.288;10.458;2022-08-19T09:10:20;53.15;;;49.40;;
7239;SDS011;3661;53.288;10.458;2022-08-19T09:13:00;52.63;;;48.92;;
7239;SDS011;3661;53.288;10.458;2022-08-19T09:15:42;48.75;;;45.00;;
7239;SDS011;3661;53.288;10.458;2022-08-19T09:18:18;48.97;;;45.22;;
7239;SDS011;3661;53.288;10.458;2022-08-19T09:20:50;49.33;;;45.40;;
7239;SDS011;3661;53.288;10.458;2022-08-19T09:23:22;49.60;;;46.10;;
7239;SDS011;3661;53.288;10.458;2022-08-19T09:25:56;47.67;;;44.13;;
7239;SDS011;3661;53.288;10.458;2022-08-19T09:28:28;50.28;;;46.78;;
7239;SDS011;3661;53.288;10.458;2022-08-19T09:31:01;45.63;;;42.38;;
7239;SDS011;3661;53.288;10.458;2022-08-19T09:33:33;46.40;;;43.00;;
7239;SDS011;3661;53.288;10.458;2022-08-19T09:36:06;45.70;;;42.42;;
7239;SDS011;3661;53.288;10.458;2022-08-19T09:38:40;46.55;;;43.15;;
7239;SDS011;3661;53.288;10.458;2022-08-19T09:41:15;48.78;;;45.20;;
7239;SDS011;3661;53.288;10.458;2022-08-19T09:43:50;45.28;;;42.00;;
7239;SDS011;3661;53.288;10.458;2022-08-19T09:46:26;44.90;;;41.63;;
7239;SDS011;3661;53.288;10.458;2022-08-19T09:49:00;41.65;;;38.45;;
7239;SDS011;3661;53.288;10.458;2022-08-19T09:51:35;44.80;;;41.60;;
7239;SDS011;3661;53.288;10.458;2022-08-19T09:54:07;51.72;;;47.70;;
7239;SDS011;3661;53.288;10.458;2022-08-19T09:56:41;43.75;;;40.88;;
7239;SDS011;3661;53.288;10.458;2022-08-19T09:59:14;44.45;;;41.33;;
7239;SDS011;3661;53.288;10.458;2022-08-19T10:01:47;44.23;;;41.43;;
7239;SDS011;3661;53.288;10.458;2022-08-19T10:04:19;50.97;;;47.60;;
7239;SDS011;3661;53.288;10.458;2022-08-19T10:06:55;47.70;;;44.28;;
7239;SDS011;3661;53.288;10.458;2022-08-19T10:09:27;45.25;;;42.33;;
7239;SDS011;3661;53.288;10.458;2022-08-19T10:12:01;45.45;;;42.22;;
7239;SDS011;3661;53.288;10.458;2022-08-19T10:14:35;46.08;;;43.17;;
7239;SDS011;3661;53.288;10.458;2022-08-19T10:17:08;46.67;;;43.42;;
7239;SDS011;3661;53.288;10.458;2022-08-19T10:19:40;45.42;;;42.20;;
7239;SDS011;3661;53.288;10.458;2022-08-19T10:22:12;44.70;;;41.33;;
7239;SDS011;3661;53.288;10.458;2022-08-19T10:24:45;40.17;;;37.25;;
7239;SDS011;3661;53.288;10.458;2022-08-19T10:27:19;42.00;;;39.00;;
7239;SDS011;3661;53.288;10.458;2022-08-19T10:29:51;39.55;;;36.65;;
7239;SDS011;3661;53.288;10.458;2022-08-19T10:32:23;44.33;;;41.08;;
7239;SDS011;3661;53.288;10.458;2022-08-19T10:34:56;44.42;;;41.47;;
7239;SDS011;3661;53.288;10.458;2022-08-19T10:37:28;45.53;;;42.30;;
7239;SDS011;3661;53.288;10.458;2022-08-19T10:40:00;45.65;;;42.42;;
7239;SDS011;3661;53.288;10.458;2022-08-19T10:42:35;45.80;;;42.60;;
7239;SDS011;3661;53.288;10.458;2022-08-19T10:45:07;47.88;;;44.58;;
7239;SDS011;3661;53.288;10.458;2022-08-19T10:47:40;46.75;;;42.95;;
7239;SDS011;3661;53.288;10.458;2022-08-19T10:50:12;45.65;;;41.85;;
7239;SDS011;3661;53.288;10.458;2022-08-19T10:53:03;45.70;;;42.00;;
7239;SDS011;3661;53.288;10.458;2022-08-19T10:55:38;49.10;;;45.20;;
7239;SDS011;3661;53.288;10.458;2022-08-19T10:58:28;48.75;;;45.13;;
7239;SDS011;3661;53.288;10.458;2022-08-19T11:01:01;49.40;;;45.72;;
7239;SDS011;3661;53.288;10.458;2022-08-19T11:03:33;49.97;;;46.13;;
7239;SDS011;3661;53.288;10.458;2022-08-19T11:06:06;52.22;;;48.88;;
7239;SDS011;3661;53.288;10.458;2022-08-19T11:08:39;52.80;;;49.13;;
7239;SDS011;3661;53.288;10.458;2022-08-19T11:11:14;54.08;;;50.53;;
7239;SDS011;3661;53.288;10.458;2022-08-19T11:13:48;50.80;;;47.22;;
7239;SDS011;3661;53.288;10.458;2022-08-19T11:16:22;56.47;;;52.50;;
7239;SDS011;3661;53.288;10.458;2022-08-19T11:18:57;56.45;;;52.70;;
7239;SDS011;3661;53.288;10.458;2022-08-19T11:21:31;52.80;;;48.80;;
7239;SDS011;3661;53.288;10.458;2022-08-19T11:24:05;56.53;;;52.67;;
7239;SDS011;3661;53.288;10.458;2022-08-19T11:26:39;55.47;;;51.30;;
7239;SDS011;3661;53.288;10.458;2022-08-19T11:29:17;55.75;;;52.03;;
7239;SDS011;3661;53.288;10.458;2022-08-19T11:31:50;54.03;;;50.58;;
7239;SDS011;3661;53.288;10.458;2022-08-19T11:34:24;57.58;;;53.40;;
7239;SDS011;3661;53.288;10.458;2022-08-19T11:36:58;51.22;;;47.45;;
7239;SDS011;3661;53.288;10.458;2022-08-19T11:39:33;54.83;;;50.80;;
7239;SDS011;3661;53.288;10.458;2022-08-19T11:42:07;48.65;;;44.92;;
7239;SDS011;3661;53.288;10.458;2022-08-19T11:44:54;50.53;;;46.58;;
7239;SDS011;3661;53.288;10.458;2022-08-19T11:47:26;50.83;;;46.95;;
7239;SDS011;3661;53.288;10.458;2022-08-19T11:49:59;48.93;;;45.27;;
7239;SDS011;3661;53.288;10.458;2022-08-19T11:52:31;56.17;;;52.40;;
7239;SDS011;3661;53.288;10.458;2022-08-19T11:55:04;53.63;;;49.63;;
7239;SDS011;3661;53.288;10.458;2022-08-19T11:57:37;57.50;;;53.60;;
7239;SDS011;3661;53.288;10.458;2022-08-19T12:00:13;52.47;;;48.25;;
7239;SDS011;3661;53.288;10.458;2022-08-19T12:02:46;53.78;;;49.67;;
7239;SDS011;3661;53.288;10.458;2022-08-19T12:05:18;50.55;;;47.13;;
7239;SDS011;3661;53.288;10.458;2022-08-19T12:07:50;52.45;;;48.85;;
7239;SDS011;3661;53.288;10.458;2022-08-19T12:10:24;53.60;;;50.00;;
7239;SDS011;3661;53.288;10.458;2022-08-19T12:12:56;57.58;;;53.72;;
7239;SDS011;3661;53.288;10.458;2022-08-19T12:15:30;52.53;;;48.92;;
7239;SDS011;3661;53.288;10.458;2022-08-19T12:18:07;57.70;;;54.03;;
7239;SDS011;3661;53.288;10.458;2022-08-19T12:20:40;56.72;;;53.13;;
7239;SDS011;3661;53.288;10.458;2022-08-19T12:23:15;58.75;;;55.03;;
7239;SDS011;3661;53.288;10.458;2022-08-19T12:25:48;58.10;;;54.40;;
7239;SDS011;3661;53.288;10.458;2022-08-19T12:28:22;63.10;;;59.13;;
7239;SDS011;3661;53.288;10.458;2022-08-19T12:30:57;60.13;;;56.25;;
7239;SDS011;3661;53.288;10.458;2022-08-19T12:33:29;64.57;;;60.47;;
7239;SDS011;3661;53.288;10.458;2022-08-19T12:36:02;59.08;;;55.58;;
7239;SDS011;3661;53.288;10.458;2022-08-19T12:38:37;55.72;;;52.25;;
7239;SDS011;3661;53.288;10.458;2022-08-19T12:41:11;51.35;;;48.00;;
7239;SDS011;3661;53.288;10.458;2022-08-19T12:43:45;51.45;;;48.40;;
7239;SDS011;3661;53.288;10.458;2022-08-19T12:46:19;50.45;;;47.35;;
7239;SDS011;3661;53.288;10.458;2022-08-19T12:48:52;47.50;;;44.57;;
7239;SDS011;3661;53.288;10.458;2022-08-19T12:51:24;49.92;;;46.83;;
7239;SDS011;3661;53.288;10.458;2022-08-19T12:53:57;43.17;;;40.55;;
7239;SDS011;3661;53.288;10.458;2022-08-19T12:56:29;48.13;;;45.20;;
7239;SDS011;3661;53.288;10.458;2022-08-19T12:59:02;48.40;;;45.30;;
7239;SDS011;3661;53.288;10.458;2022-08-19T13:01:36;52.22;;;49.30;;
7239;SDS011;3661;53.288;10.458;2022-08-19T13:04:09;52.15;;;49.20;;
7239;SDS011;3661;53.288;10.458;2022-08-19T13:06:42;52.03;;;48.97;;
7239;SDS011;3661;53.288;10.458;2022-08-19T13:09:14;50.83;;;47.80;;
7239;SDS011;3661;53.288;10.458;2022-08-19T13:11:46;49.65;;;46.70;;
7239;SDS011;3661;53.288;10.458;2022-08-19T13:14:18;48.35;;;45.60;;
7239;SDS011;3661;53.288;10.458;2022-08-19T13:16:52;52.67;;;49.67;;
7239;SDS011;3661;53.288;10.458;2022-08-19T13:19:25;52.63;;;49.50;;
7239;SDS011;3661;53.288;10.458;2022-08-19T13:21:58;50.40;;;47.50;;
7239;SDS011;3661;53.288;10.458;2022-08-19T13:24:30;49.47;;;46.65;;
7239;SDS011;3661;53.288;10.458;2022-08-19T13:27:03;49.20;;;46.55;;
7239;SDS011;3661;53.288;10.458;2022-08-19T13:29:36;48.88;;;45.97;;
7239;SDS011;3661;53.288;10.458;2022-08-19T13:32:29;50.30;;;47.58;;
7239;SDS011;3661;53.288;10.458;2022-08-19T13:35:19;50.58;;;47.67;;
7239;SDS011;3661;53.288;10.458;2022-08-19T13:37:51;49.40;;;46.58;;
7239;SDS011;3661;53.288;10.458;2022-08-19T13:40:24;51.58;;;48.88;;
7239;SDS011;3661;53.288;10.458;2022-08-19T13:42:59;51.42;;;48.42;;
7239;SDS011;3661;53.288;10.458;2022-08-19T13:45:33;45.90;;;43.20;;
7239;SDS011;3661;53.288;10.458;2022-08-19T13:48:07;41.23;;;38.87;;
7239;SDS011;3661;53.288;10.458;2022-08-19T13:50:40;40.63;;;38.13;;
7239;SDS011;3661;53.288;10.458;2022-08-19T13:53:14;39.08;;;36.72;;
7239;SDS011;3661;53.288;10.458;2022-08-19T13:55:47;39.20;;;36.70;;
7239;SDS011;3661;53.288;10.458;2022-08-19T13:58:20;39.72;;;37.42;;
7239;SDS011;3661;53.288;10.458;2022-08-19T14:00:53;39.70;;;37.30;;
7239;SDS011;3661;53.288;10.458;2022-08-19T14:03:26;40.85;;;38.58;;
7239;SDS011;3661;53.288;10.458;2022-08-19T14:05:59;47.88;;;45.38;;
7239;SDS011;3661;53.288;10.458;2022-08-19T14:08:31;45.58;;;43.15;;
7239;SDS011;3661;53.288;10.458;2022-08-19T14:11:04;40.53;;;38.53;;
7239;SDS011;3661;53.288;10.458;2022-08-19T14:13:36;46.35;;;43.95;;
7239;SDS011;3661;53.288;10.458;2022-08-19T14:16:09;41.92;;;39.63;;
7239;SDS011;3661;53.288;10.458;2022-08-19T14:18:43;43.63;;;41.33;;
7239;SDS011;3661;53.288;10.458;2022-08-19T14:21:17;42.75;;;40.65;;
7239;SDS011;3661;53.288;10.458;2022-08-19T14:23:53;37.85;;;35.80;;
7239;SDS011;3661;53.288;10.458;2022-08-19T14:26:26;39.22;;;36.92;;
7239;SDS011;3661;53.288;10.458;2022-08-19T14:28:58;41.77;;;39.67;;
7239;SDS011;3661;53.288;10.458;2022-08-19T14:31:31;40.45;;;38.35;;
7239;SDS011;3661;53.288;10.458;2022-08-19T14:34:05;42.15;;;39.88;;
7239;SDS011;3661;53.288;10.458;2022-08-19T14:36:37;39.00;;;36.97;;
7239;SDS011;3661;53.288;10.458;2022-08-19T14:39:10;39.83;;;37.63;;
7239;SDS011;3661;53.288;10.458;2022-08-19T14:41:42;37.78;;;36.08;;
7239;SDS011;3661;53.288;10.458;2022-08-19T14:44:15;39.20;;;37.15;;
7239;SDS011;3661;53.288;10.458;2022-08-19T14:46:47;40.95;;;38.85;;
7239;SDS011;3661;53.288;10.458;2022-08-19T14:49:20;38.45;;;36.65;;
7239;SDS011;3661;53.288;10.458;2022-08-19T14:51:53;42.97;;;40.67;;
7239;SDS011;3661;53.288;10.458;2022-08-19T14:54:26;42.25;;;40.15;;
7239;SDS011;3661;53.288;10.458;2022-08-19T14:56:58;41.42;;;39.42;;
7239;SDS011;3661;53.288;10.458;2022-08-19T14:59:31;42.55;;;40.45;;
7239;SDS011;3661;53.288;10.458;2022-08-19T15:02:03;41.63;;;39.67;;
7239;SDS011;3661;53.288;10.458;2022-08-19T15:04:37;44.08;;;42.03;;
7239;SDS011;3661;53.288;10.458;2022-08-19T15:07:09;44.15;;;42.05;;
7239;SDS011;3661;53.288;10.458;2022-08-19T15:09:41;42.97;;;40.72;;
7239;SDS011;3661;53.288;10.458;2022-08-19T15:12:13;45.00;;;42.90;;
7239;SDS011;3661;53.288;10.458;2022-08-19T15:14:46;44.92;;;42.90;;
7239;SDS011;3661;53.288;10.458;2022-08-19T15:17:20;43.15;;;41.28;;